sensor_id;sensor_type;location;lat;lon;timestamp;temperature;humidity
31369;DHT22;18004;48.416;10.066;2023-07-13T00:02:34;18.50;99.90
31369;DHT22;18004;48.416;10.066;2023-07-13T00:05:00;18.50;99.90
31369;DHT22;18004;48.416;10.066;2023-07-13T00:07:39;18.50;99.90
31369;DHT22;18004;48.416;10.066;2023-07-13T00:10:05;18.50;99.90
31369;DHT22;18004;48.416;10.066;2023-07-13T00:12:35;18.50;99.90
31369;DHT22;18004;48.416;10.066;2023-07-13T00:15:05;18.50;99.90
31369;DHT22;18004;48.416;10.066;2023-07-13T00:17:54;18.50;99.90
31369;DHT22;18004;48.416;10.066;2023-07-13T00:20:24;18.50;99.90
31369;DHT22;18004;48.416;10.066;2023-07-13T00:22:53;18.50;99.90
31369;DHT22;18004;48.416;10.066;2023-07-13T00:25:34;18.50;99.90
31369;DHT22;18004;48.416;10.066;2023-07-13T00:28:03;18.50;99.90
31369;DHT22;18004;48.416;10.066;2023-07-13T00:30:29;18.50;99.90
31369;DHT22;18004;48.416;10.066;2023-07-13T00:40:48;18.40;99.90
31369;DHT22;18004;48.416;10.066;2023-07-13T00:43:53;18.40;99.90
31369;DHT22;18004;48.416;10.066;2023-07-13T00:46:28;18.20;99.90
31369;DHT22;18004;48.416;10.066;2023-07-13T00:49:05;18.00;99.90
31369;DHT22;18004;48.416;10.066;2023-07-13T01:18:13;18.00;99.90
31369;DHT22;18004;48.416;10.066;2023-07-13T01:52:02;17.90;99.90
31369;DHT22;18004;48.416;10.066;2023-07-13T01:54:28;17.80;99.90
31369;DHT22;18004;48.416;10.066;2023-07-13T01:56:54;17.70;99.90
31369;DHT22;18004;48.416;10.066;2023-07-13T01:59:20;17.60;99.90
31369;DHT22;18004;48.416;10.066;2023-07-13T02:01:45;17.50;99.90
31369;DHT22;18004;48.416;10.066;2023-07-13T02:04:11;17.50;99.90
31369;DHT22;18004;48.416;10.066;2023-07-13T02:06:37;17.40;99.90
31369;DHT22;18004;48.416;10.066;2023-07-13T02:09:02;17.40;99.90
31369;DHT22;18004;48.416;10.066;2023-07-13T02:11:28;17.30;99.90
31369;DHT22;18004;48.416;10.066;2023-07-13T02:17:09;17.40;99.90
31369;DHT22;18004;48.416;10.066;2023-07-13T02:19:35;17.40;99.90
31369;DHT22;18004;48.416;10.066;2023-07-13T02:22:05;17.30;99.90
31369;DHT22;18004;48.416;10.066;2023-07-13T02:24:30;17.30;99.90
31369;DHT22;18004;48.416;10.066;2023-07-13T02:26:56;17.20;99.90
31369;DHT22;18004;48.416;10.066;2023-07-13T02:29:22;17.20;99.90
31369;DHT22;18004;48.416;10.066;2023-07-13T02:31:48;17.20;99.90
31369;DHT22;18004;48.416;10.066;2023-07-13T02:34:14;17.20;99.90
31369;DHT22;18004;48.416;10.066;2023-07-13T02:36:40;17.10;99.90
31369;DHT22;18004;48.416;10.066;2023-07-13T02:39:09;17.10;99.90
31369;DHT22;18004;48.416;10.066;2023-07-13T02:41:36;17.20;99.90
31369;DHT22;18004;48.416;10.066;2023-07-13T02:44:02;17.20;99.90
31369;DHT22;18004;48.416;10.066;2023-07-13T02:46:32;17.20;99.90
31369;DHT22;18004;48.416;10.066;2023-07-13T02:56:51;17.20;99.90
31369;DHT22;18004;48.416;10.066;2023-07-13T03:00:00;17.30;99.90
31369;DHT22;18004;48.416;10.066;2023-07-13T03:02:41;17.30;99.90
31369;DHT22;18004;48.416;10.066;2023-07-13T03:05:12;17.30;99.90
31369;DHT22;18004;48.416;10.066;2023-07-13T03:07:39;17.20;99.90
31369;DHT22;18004;48.416;10.066;2023-07-13T03:10:05;17.20;99.90
31369;DHT22;18004;48.416;10.066;2023-07-13T03:12:32;17.20;99.90
31369;DHT22;18004;48.416;10.066;2023-07-13T03:18:10;17.10;99.90
31369;DHT22;18004;48.416;10.066;2023-07-13T03:20:36;17.00;99.90
31369;DHT22;18004;48.416;10.066;2023-07-13T03:23:03;17.00;99.90
31369;DHT22;18004;48.416;10.066;2023-07-13T03:25:29;17.00;99.90
31369;DHT22;18004;48.416;10.066;2023-07-13T03:27:55;16.90;99.90
31369;DHT22;18004;48.416;10.066;2023-07-13T03:30:21;16.90;99.90
31369;DHT22;18004;48.416;10.066;2023-07-13T03:32:47;16.90;99.90
31369;DHT22;18004;48.416;10.066;2023-07-13T03:35:13;16.90;99.90
31369;DHT22;18004;48.416;10.066;2023-07-13T03:37:39;16.90;99.90
31369;DHT22;18004;48.416;10.066;2023-07-13T03:40:09;16.90;99.90
31369;DHT22;18004;48.416;10.066;2023-07-13T03:42:35;16.80;99.90
31369;DHT22;18004;48.416;10.066;2023-07-13T03:45:01;16.70;99.90
31369;DHT22;18004;48.416;10.066;2023-07-13T03:47:27;16.60;99.90
31369;DHT22;18004;48.416;10.066;2023-07-13T03:49:53;16.50;99.90
31369;DHT22;18004;48.416;10.066;2023-07-13T03:52:19;16.60;99.90
31369;DHT22;18004;48.416;10.066;2023-07-13T03:54:44;16.60;99.90
31369;DHT22;18004;48.416;10.066;2023-07-13T03:57:10;16.60;99.90
31369;DHT22;18004;48.416;10.066;2023-07-13T03:59:40;16.60;99.90
31369;DHT22;18004;48.416;10.066;2023-07-13T04:02:05;16.60;99.90
31369;DHT22;18004;48.416;10.066;2023-07-13T04:04:31;16.60;99.90
31369;DHT22;18004;48.416;10.066;2023-07-13T04:06:58;16.50;99.90
31369;DHT22;18004;48.416;10.066;2023-07-13T04:09:24;16.60;99.90
31369;DHT22;18004;48.416;10.066;2023-07-13T04:11:50;16.50;99.90
31369;DHT22;18004;48.416;10.066;2023-07-13T04:14:16;16.50;99.90
31369;DHT22;18004;48.416;10.066;2023-07-13T04:16:42;16.40;99.90
31369;DHT22;18004;48.416;10.066;2023-07-13T04:19:09;16.30;99.90
31369;DHT22;18004;48.416;10.066;2023-07-13T04:21:36;16.20;99.90
31369;DHT22;18004;48.416;10.066;2023-07-13T04:24:03;16.30;99.90
31369;DHT22;18004;48.416;10.066;2023-07-13T04:26:29;16.40;99.90
31369;DHT22;18004;48.416;10.066;2023-07-13T04:28:56;16.40;99.90
31369;DHT22;18004;48.416;10.066;2023-07-13T04:31:22;16.40;99.90
31369;DHT22;18004;48.416;10.066;2023-07-13T04:33:48;16.30;99.90
31369;DHT22;18004;48.416;10.066;2023-07-13T04:36:15;16.40;99.90
31369;DHT22;18004;48.416;10.066;2023-07-13T04:38:41;16.40;99.90
31369;DHT22;18004;48.416;10.066;2023-07-13T04:41:08;16.40;99.90
31369;DHT22;18004;48.416;10.066;2023-07-13T04:43:35;16.30;99.90
31369;DHT22;18004;48.416;10.066;2023-07-13T04:46:06;16.40;99.90
31369;DHT22;18004;48.416;10.066;2023-07-13T04:48:32;16.40;99.90
31369;DHT22;18004;48.416;10.066;2023-07-13T04:50:59;16.50;99.90
31369;DHT22;18004;48.416;10.066;2023-07-13T04:53:25;16.60;99.90
31369;DHT22;18004;48.416;10.066;2023-07-13T04:55:51;16.70;99.90
31369;DHT22;18004;48.416;10.066;2023-07-13T05:01:24;16.80;99.90
31369;DHT22;18004;48.416;10.066;2023-07-13T05:03:57;16.90;99.90
31369;DHT22;18004;48.416;10.066;2023-07-13T05:06:27;17.00;99.90
31369;DHT22;18004;48.416;10.066;2023-07-13T05:08:54;17.00;99.90
31369;DHT22;18004;48.416;10.066;2023-07-13T05:12:28;17.10;99.90
31369;DHT22;18004;48.416;10.066;2023-07-13T05:15:43;17.20;99.90
31369;DHT22;18004;48.416;10.066;2023-07-13T05:18:18;17.20;99.90
31369;DHT22;18004;48.416;10.066;2023-07-13T05:57:07;17.80;99.90
31369;DHT22;18004;48.416;10.066;2023-07-13T06:03:53;17.70;99.90
31369;DHT22;18004;48.416;10.066;2023-07-13T06:22:41;18.10;99.90
31369;DHT22;18004;48.416;10.066;2023-07-13T06:29:10;18.30;99.90
31369;DHT22;18004;48.416;10.066;2023-07-13T06:31:36;18.40;99.90
31369;DHT22;18004;48.416;10.066;2023-07-13T06:49:22;18.60;99.90
31369;DHT22;18004;48.416;10.066;2023-07-13T06:55:37;18.60;99.90
31369;DHT22;18004;48.416;10.066;2023-07-13T06:58:10;18.70;99.90
31369;DHT22;18004;48.416;10.066;2023-07-13T07:01:13;18.90;99.90
31369;DHT22;18004;48.416;10.066;2023-07-13T07:03:45;19.10;99.90
31369;DHT22;18004;48.416;10.066;2023-07-13T07:06:37;18.90;99.90
31369;DHT22;18004;48.416;10.066;2023-07-13T07:09:11;19.00;99.90
31369;DHT22;18004;48.416;10.066;2023-07-13T07:11:37;19.00;99.90
31369;DHT22;18004;48.416;10.066;2023-07-13T07:14:03;19.10;99.90
31369;DHT22;18004;48.416;10.066;2023-07-13T07:16:32;19.20;99.90
31369;DHT22;18004;48.416;10.066;2023-07-13T07:18:58;19.30;99.90
31369;DHT22;18004;48.416;10.066;2023-07-13T07:21:36;19.40;99.90
31369;DHT22;18004;48.416;10.066;2023-07-13T07:24:15;19.40;99.90
31369;DHT22;18004;48.416;10.066;2023-07-13T07:26:44;19.50;99.90
31369;DHT22;18004;48.416;10.066;2023-07-13T07:29:13;19.60;99.90
31369;DHT22;18004;48.416;10.066;2023-07-13T07:31:45;19.60;99.90
31369;DHT22;18004;48.416;10.066;2023-07-13T07:34:11;19.60;99.90
31369;DHT22;18004;48.416;10.066;2023-07-13T07:36:37;19.70;99.90
31369;DHT22;18004;48.416;10.066;2023-07-13T07:39:04;19.90;99.90
31369;DHT22;18004;48.416;10.066;2023-07-13T07:41:39;20.00;99.90
31369;DHT22;18004;48.416;10.066;2023-07-13T07:44:08;20.00;99.50
31369;DHT22;18004;48.416;10.066;2023-07-13T07:46:37;20.10;99.90
31369;DHT22;18004;48.416;10.066;2023-07-13T07:49:03;20.10;99.20
31369;DHT22;18004;48.416;10.066;2023-07-13T07:51:29;20.30;99.90
31369;DHT22;18004;48.416;10.066;2023-07-13T07:53:55;20.40;94.00
31369;DHT22;18004;48.416;10.066;2023-07-13T07:56:22;20.40;95.20
31369;DHT22;18004;48.416;10.066;2023-07-13T07:58:47;20.40;91.60
31369;DHT22;18004;48.416;10.066;2023-07-13T08:01:14;20.40;92.90
31369;DHT22;18004;48.416;10.066;2023-07-13T08:03:40;20.50;92.70
31369;DHT22;18004;48.416;10.066;2023-07-13T08:06:06;20.60;92.70
31369;DHT22;18004;48.416;10.066;2023-07-13T08:08:35;20.80;92.30
31369;DHT22;18004;48.416;10.066;2023-07-13T08:11:08;21.00;83.70
31369;DHT22;18004;48.416;10.066;2023-07-13T08:13:40;21.00;78.10
31369;DHT22;18004;48.416;10.066;2023-07-13T08:16:07;21.10;83.20
31369;DHT22;18004;48.416;10.066;2023-07-13T08:18:33;21.10;79.70
31369;DHT22;18004;48.416;10.066;2023-07-13T08:21:06;21.20;84.50
31369;DHT22;18004;48.416;10.066;2023-07-13T08:23:35;21.20;86.20
31369;DHT22;18004;48.416;10.066;2023-07-13T08:26:02;21.30;87.60
31369;DHT22;18004;48.416;10.066;2023-07-13T08:28:33;21.30;83.50
31369;DHT22;18004;48.416;10.066;2023-07-13T08:31:08;21.50;90.70
31369;DHT22;18004;48.416;10.066;2023-07-13T08:33:35;21.70;78.90
31369;DHT22;18004;48.416;10.066;2023-07-13T08:36:04;21.80;86.30
31369;DHT22;18004;48.416;10.066;2023-07-13T08:38:34;21.70;79.00
31369;DHT22;18004;48.416;10.066;2023-07-13T08:41:14;21.80;76.00
31369;DHT22;18004;48.416;10.066;2023-07-13T08:43:58;21.80;79.70
31369;DHT22;18004;48.416;10.066;2023-07-13T08:46:53;21.80;77.10
31369;DHT22;18004;48.416;10.066;2023-07-13T08:53:02;21.50;82.60
31369;DHT22;18004;48.416;10.066;2023-07-13T14:32:22;28.40;1.00
31369;DHT22;18004;48.416;10.066;2023-07-13T14:39:44;27.20;1.00
31369;DHT22;18004;48.416;10.066;2023-07-13T15:21:40;27.20;1.00
31369;DHT22;18004;48.416;10.066;2023-07-13T15:29:05;27.40;1.00
31369;DHT22;18004;48.416;10.066;2023-07-13T15:55:22;26.90;2.30
31369;DHT22;18004;48.416;10.066;2023-07-13T17:12:34;25.10;1.00
31369;DHT22;18004;48.416;10.066;2023-07-13T17:15:01;25.20;1.00
31369;DHT22;18004;48.416;10.066;2023-07-13T17:17:58;25.10;1.00
31369;DHT22;18004;48.416;10.066;2023-07-13T17:20:55;24.80;1.00
31369;DHT22;18004;48.416;10.066;2023-07-13T17:23:46;24.80;1.00
31369;DHT22;18004;48.416;10.066;2023-07-13T17:26:23;24.70;1.00
31369;DHT22;18004;48.416;10.066;2023-07-13T17:29:20;24.70;1.00
31369;DHT22;18004;48.416;10.066;2023-07-13T17:31:59;24.70;1.00
31369;DHT22;18004;48.416;10.066;2023-07-13T17:35:08;24.50;1.00
31369;DHT22;18004;48.416;10.066;2023-07-13T17:37:38;24.50;1.00
31369;DHT22;18004;48.416;10.066;2023-07-13T17:40:14;24.60;1.00
31369;DHT22;18004;48.416;10.066;2023-07-13T17:43:02;24.60;1.00
31369;DHT22;18004;48.416;10.066;2023-07-13T17:46:01;24.70;1.00
31369;DHT22;18004;48.416;10.066;2023-07-13T17:48:47;24.60;1.00
31369;DHT22;18004;48.416;10.066;2023-07-13T17:51:18;24.50;1.00
31369;DHT22;18004;48.416;10.066;2023-07-13T17:54:18;24.40;1.00
31369;DHT22;18004;48.416;10.066;2023-07-13T17:56:46;24.50;1.00
31369;DHT22;18004;48.416;10.066;2023-07-13T17:59:13;24.30;1.00
31369;DHT22;18004;48.416;10.066;2023-07-13T18:01:40;24.20;1.00
31369;DHT22;18004;48.416;10.066;2023-07-13T18:04:20;24.00;1.00
31369;DHT22;18004;48.416;10.066;2023-07-13T18:06:49;23.90;1.00
31369;DHT22;18004;48.416;10.066;2023-07-13T18:09:23;23.80;1.00
31369;DHT22;18004;48.416;10.066;2023-07-13T18:11:54;23.70;1.00
31369;DHT22;18004;48.416;10.066;2023-07-13T18:14:43;23.70;1.00
31369;DHT22;18004;48.416;10.066;2023-07-13T18:17:11;23.60;1.00
31369;DHT22;18004;48.416;10.066;2023-07-13T18:19:46;23.70;1.00
31369;DHT22;18004;48.416;10.066;2023-07-13T18:22:16;23.60;1.60
31369;DHT22;18004;48.416;10.066;2023-07-13T18:24:44;23.60;1.50
31369;DHT22;18004;48.416;10.066;2023-07-13T18:27:13;23.50;1.50
31369;DHT22;18004;48.416;10.066;2023-07-13T18:29:39;23.40;1.80
31369;DHT22;18004;48.416;10.066;2023-07-13T18:32:06;23.40;2.80
31369;DHT22;18004;48.416;10.066;2023-07-13T18:34:38;23.30;2.90
31369;DHT22;18004;48.416;10.066;2023-07-13T18:37:17;23.30;3.10
31369;DHT22;18004;48.416;10.066;2023-07-13T18:39:45;23.30;4.00
31369;DHT22;18004;48.416;10.066;2023-07-13T18:42:29;23.30;3.60
31369;DHT22;18004;48.416;10.066;2023-07-13T18:45:07;23.20;4.30
31369;DHT22;18004;48.416;10.066;2023-07-13T18:47:33;23.20;4.60
31369;DHT22;18004;48.416;10.066;2023-07-13T18:50:15;23.20;4.40
31369;DHT22;18004;48.416;10.066;2023-07-13T18:52:45;23.10;5.10
31369;DHT22;18004;48.416;10.066;2023-07-13T18:55:14;23.10;6.50
31369;DHT22;18004;48.416;10.066;2023-07-13T18:57:51;22.90;7.20
31369;DHT22;18004;48.416;10.066;2023-07-13T19:00:25;22.80;8.20
31369;DHT22;18004;48.416;10.066;2023-07-13T19:03:33;22.70;8.70
31369;DHT22;18004;48.416;10.066;2023-07-13T19:06:03;22.80;9.40
31369;DHT22;18004;48.416;10.066;2023-07-13T19:08:40;22.70;8.30
31369;DHT22;18004;48.416;10.066;2023-07-13T19:11:14;22.60;8.80
31369;DHT22;18004;48.416;10.066;2023-07-13T19:13:44;22.60;9.40
31369;DHT22;18004;48.416;10.066;2023-07-13T19:16:12;22.60;10.30
31369;DHT22;18004;48.416;10.066;2023-07-13T19:18:40;22.40;11.60
31369;DHT22;18004;48.416;10.066;2023-07-13T19:21:26;22.30;12.80
31369;DHT22;18004;48.416;10.066;2023-07-13T19:23:54;22.40;14.30
31369;DHT22;18004;48.416;10.066;2023-07-13T19:26:25;22.30;14.20
31369;DHT22;18004;48.416;10.066;2023-07-13T19:28:54;22.20;14.50
31369;DHT22;18004;48.416;10.066;2023-07-13T19:31:27;22.20;15.70
31369;DHT22;18004;48.416;10.066;2023-07-13T19:36:38;22.20;17.10
31369;DHT22;18004;48.416;10.066;2023-07-13T19:39:08;22.10;17.90
31369;DHT22;18004;48.416;10.066;2023-07-13T19:41:38;22.10;17.90
31369;DHT22;18004;48.416;10.066;2023-07-13T19:44:08;22.10;17.90
31369;DHT22;18004;48.416;10.066;2023-07-13T19:46:36;22.00;17.80
31369;DHT22;18004;48.416;10.066;2023-07-13T19:49:04;21.80;18.60
31369;DHT22;18004;48.416;10.066;2023-07-13T19:51:34;21.80;18.70
31369;DHT22;18004;48.416;10.066;2023-07-13T19:54:12;21.90;19.00
31369;DHT22;18004;48.416;10.066;2023-07-13T19:56:41;21.80;22.00
31369;DHT22;18004;48.416;10.066;2023-07-13T19:59:24;21.90;23.00
31369;DHT22;18004;48.416;10.066;2023-07-13T20:02:00;21.70;22.30
31369;DHT22;18004;48.416;10.066;2023-07-13T20:04:46;21.50;23.30
31369;DHT22;18004;48.416;10.066;2023-07-13T20:07:17;21.30;26.60
31369;DHT22;18004;48.416;10.066;2023-07-13T20:09:44;21.30;26.50
31369;DHT22;18004;48.416;10.066;2023-07-13T20:12:16;21.30;27.60
31369;DHT22;18004;48.416;10.066;2023-07-13T20:14:47;21.40;28.20
31369;DHT22;18004;48.416;10.066;2023-07-13T20:17:47;21.30;28.20
31369;DHT22;18004;48.416;10.066;2023-07-13T20:23:36;21.20;29.50
31369;DHT22;18004;48.416;10.066;2023-07-13T20:26:05;21.00;30.00
31369;DHT22;18004;48.416;10.066;2023-07-13T20:28:31;20.80;32.50
31369;DHT22;18004;48.416;10.066;2023-07-13T20:30:57;20.70;35.40
31369;DHT22;18004;48.416;10.066;2023-07-13T20:33:28;20.70;35.90
31369;DHT22;18004;48.416;10.066;2023-07-13T20:36:02;20.70;35.30
31369;DHT22;18004;48.416;10.066;2023-07-13T20:38:29;20.70;36.50
31369;DHT22;18004;48.416;10.066;2023-07-13T20:40:59;20.70;37.50
31369;DHT22;18004;48.416;10.066;2023-07-13T20:43:29;20.70;36.30
31369;DHT22;18004;48.416;10.066;2023-07-13T20:46:12;20.60;35.30
31369;DHT22;18004;48.416;10.066;2023-07-13T20:48:52;20.60;35.10
31369;DHT22;18004;48.416;10.066;2023-07-13T20:51:38;20.60;39.50
31369;DHT22;18004;48.416;10.066;2023-07-13T20:57:48;20.50;65.80
31369;DHT22;18004;48.416;10.066;2023-07-13T21:00:44;20.50;71.50
31369;DHT22;18004;48.416;10.066;2023-07-13T21:03:19;20.50;65.70
31369;DHT22;18004;48.416;10.066;2023-07-13T21:05:46;20.30;50.30
31369;DHT22;18004;48.416;10.066;2023-07-13T21:08:18;20.10;49.10
31369;DHT22;18004;48.416;10.066;2023-07-13T21:10:56;20.00;46.80
31369;DHT22;18004;48.416;10.066;2023-07-13T21:13:22;19.90;48.60
31369;DHT22;18004;48.416;10.066;2023-07-13T21:15:48;20.00;51.80
31369;DHT22;18004;48.416;10.066;2023-07-13T21:18:24;20.00;47.90
31369;DHT22;18004;48.416;10.066;2023-07-13T21:20:53;20.10;47.50
31369;DHT22;18004;48.416;10.066;2023-07-13T21:25:50;19.90;43.20
31369;DHT22;18004;48.416;10.066;2023-07-13T21:28:16;19.80;41.10
31369;DHT22;18004;48.416;10.066;2023-07-13T21:30:48;19.70;44.40
31369;DHT22;18004;48.416;10.066;2023-07-13T21:33:15;19.70;45.00
31369;DHT22;18004;48.416;10.066;2023-07-13T21:35:43;19.80;46.50
31369;DHT22;18004;48.416;10.066;2023-07-13T21:41:54;19.80;46.90
31369;DHT22;18004;48.416;10.066;2023-07-13T21:44:32;19.70;39.70
31369;DHT22;18004;48.416;10.066;2023-07-13T21:47:19;19.70;39.40
31369;DHT22;18004;48.416;10.066;2023-07-13T21:50:05;19.40;39.40
31369;DHT22;18004;48.416;10.066;2023-07-13T21:53:30;19.30;43.60
31369;DHT22;18004;48.416;10.066;2023-07-13T21:58:48;19.10;46.60
31369;DHT22;18004;48.416;10.066;2023-07-13T22:01:19;19.00;44.50
31369;DHT22;18004;48.416;10.066;2023-07-13T22:07:15;19.00;49.40
31369;DHT22;18004;48.416;10.066;2023-07-13T22:09:41;19.10;48.50
31369;DHT22;18004;48.416;10.066;2023-07-13T22:12:10;19.20;48.20
31369;DHT22;18004;48.416;10.066;2023-07-13T22:14:36;19.30;53.20
31369;DHT22;18004;48.416;10.066;2023-07-13T22:17:02;19.30;59.40
31369;DHT22;18004;48.416;10.066;2023-07-13T22:19:31;19.30;70.10
31369;DHT22;18004;48.416;10.066;2023-07-13T22:21:58;19.40;73.00
31369;DHT22;18004;48.416;10.066;2023-07-13T22:24:24;19.40;76.70
31369;DHT22;18004;48.416;10.066;2023-07-13T22:26:50;19.40;78.40
31369;DHT22;18004;48.416;10.066;2023-07-13T22:32:10;19.40;89.20
31369;DHT22;18004;48.416;10.066;2023-07-13T22:34:37;19.40;91.00
31369;DHT22;18004;48.416;10.066;2023-07-13T22:37:03;19.40;91.20
31369;DHT22;18004;48.416;10.066;2023-07-13T22:39:34;19.40;91.60
31369;DHT22;18004;48.416;10.066;2023-07-13T22:42:00;19.30;87.90
31369;DHT22;18004;48.416;10.066;2023-07-13T22:44:29;19.30;90.10
31369;DHT22;18004;48.416;10.066;2023-07-13T22:46:56;19.30;90.50
31369;DHT22;18004;48.416;10.066;2023-07-13T22:49:37;19.30;90.20
31369;DHT22;18004;48.416;10.066;2023-07-13T22:52:29;19.30;90.70
31369;DHT22;18004;48.416;10.066;2023-07-13T22:55:15;19.30;90.90
31369;DHT22;18004;48.416;10.066;2023-07-13T22:58:15;19.10;90.50
31369;DHT22;18004;48.416;10.066;2023-07-13T23:04:37;19.10;90.40
31369;DHT22;18004;48.416;10.066;2023-07-13T23:10:54;19.00;89.40
31369;DHT22;18004;48.416;10.066;2023-07-13T23:13:58;18.90;87.00
31369;DHT22;18004;48.416;10.066;2023-07-13T23:16:48;18.90;89.60
31369;DHT22;18004;48.416;10.066;2023-07-13T23:20:01;18.80;90.80
31369;DHT22;18004;48.416;10.066;2023-07-13T23:22:43;18.80;91.70
31369;DHT22;18004;48.416;10.066;2023-07-13T23:26:04;18.80;92.50
31369;DHT22;18004;48.416;10.066;2023-07-13T23:29:29;18.70;93.40
31369;DHT22;18004;48.416;10.066;2023-07-13T23:31:58;18.70;94.20
31369;DHT22;18004;48.416;10.066;2023-07-13T23:34:54;18.70;95.70
31369;DHT22;18004;48.416;10.066;2023-07-13T23:37:41;18.70;97.10
31369;DHT22;18004;48.416;10.066;2023-07-13T23:40:44;18.60;98.30
31369;DHT22;18004;48.416;10.066;2023-07-13T23:51:00;18.40;99.90
31369;DHT22;18004;48.416;10.066;2023-07-13T23:57:30;18.30;99.50
